createdAt,value
2022-08-21T20:05:02.669Z,6.97
2022-08-21T20:07:31.019Z,7.10
2022-08-21T20:10:00.030Z,7.05
2022-08-21T20:12:28.093Z,6.97
2022-08-21T20:14:57.148Z,7.87
2022-08-21T20:17:25.655Z,6.50
2022-08-21T20:22:42.408Z,6.60
2022-08-21T20:25:10.397Z,6.65
2022-08-21T20:27:40.578Z,6.70
2022-08-21T20:30:10.115Z,6.53
2022-08-21T20:32:38.267Z,5.75
2022-08-21T20:40:45.628Z,5.95
2022-08-21T20:43:14.671Z,7.53
2022-08-21T20:45:43.719Z,7.60
2022-08-21T20:48:23.612Z,8.65
2022-08-21T20:51:02.841Z,12.68
2022-08-21T20:53:46.843Z,17.65
2022-08-21T20:56:30.236Z,17.23
2022-08-21T20:59:22.887Z,26.83
2022-08-21T21:01:54.177Z,27.30
2022-08-21T21:04:43.221Z,29.48
2022-08-21T21:07:18.616Z,36.78
2022-08-21T21:09:49.618Z,38.83
2022-08-21T21:12:30.754Z,38.08
2022-08-21T21:15:05.504Z,37.83
2022-08-21T21:18:13.258Z,42.13
2022-08-21T21:24:00.459Z,41.08
2022-08-21T21:26:46.145Z,46.13
2022-08-21T21:29:39.471Z,50.10
2022-08-21T21:32:10.188Z,47.37
2022-08-21T21:34:51.176Z,47.00
2022-08-21T21:37:37.426Z,49.65
2022-08-21T21:40:29.686Z,49.90
2022-08-21T21:43:05.503Z,51.72
2022-08-21T21:45:55.232Z,50.90
2022-08-21T21:48:41.294Z,55.63
2022-08-21T21:51:47.633Z,55.72
2022-08-21T21:54:43.536Z,52.13
2022-08-21T21:57:43.294Z,50.40
2022-08-21T22:00:21.092Z,54.70
2022-08-21T22:02:55.258Z,55.10
2022-08-21T22:05:43.127Z,54.97
2022-08-21T22:08:30.278Z,50.35
2022-08-21T22:11:08.976Z,54.10
2022-08-21T22:14:16.818Z,53.33
2022-08-21T22:16:51.215Z,54.35
2022-08-21T22:19:25.061Z,58.50
2022-08-21T22:22:01.004Z,56.35
2022-08-21T22:24:35.726Z,56.50
2022-08-21T22:27:09.560Z,57.92
2022-08-21T22:29:44.563Z,55.00
2022-08-21T22:32:13.588Z,54.92
2022-08-21T22:34:42.906Z,59.33
2022-08-21T22:37:12.404Z,59.00
2022-08-21T22:42:31.573Z,64.05
2022-08-21T22:45:04.742Z,60.85
2022-08-21T22:47:45.097Z,60.03
2022-08-21T22:50:27.379Z,63.97
2022-08-21T22:53:00.886Z,61.20
2022-08-21T22:55:55.223Z,59.38
2022-08-21T22:58:27.538Z,61.78
2022-08-21T23:01:00.846Z,62.20
2022-08-21T23:03:47.672Z,64.65
2022-08-21T23:06:36.110Z,62.33
2022-08-21T23:09:17.566Z,60.85
2022-08-21T23:11:50.887Z,59.97
2022-08-21T23:14:35.271Z,61.78
2022-08-21T23:17:14.449Z,64.75
2022-08-21T23:20:03.591Z,65.68
2022-08-21T23:22:37.369Z,63.03
2022-08-21T23:25:28.350Z,62.97
2022-08-21T23:28:23.985Z,62.50
2022-08-21T23:31:13.734Z,61.67
2022-08-21T23:34:20.179Z,64.12
2022-08-21T23:37:23.193Z,58.53
2022-08-21T23:40:15.058Z,64.23
2022-08-21T23:43:13.156Z,57.30
2022-08-21T23:46:07.621Z,52.50
2022-08-21T23:49:06.038Z,59.13
2022-08-21T23:55:00.287Z,59.88
